Halifax, Nova Scotia

11:41 AM AST on February 11, 2016 (GMT -0400)
Halifax International | | Change Station
CLOSE
Current Station
Airport
Location: Halifax,
Elevation: 476 ft
Nearby Weather Stations

Elev 476 ft 44.88 °N, 63.51 °W | Updated 10 minutes ago

Overcast
Overcast
27 °F
Feels Like 18 °F
N
9
Wind Variable Wind from SSW

Today is forecast to be nearly the same temperature as yesterday.

Today
High -- | Low -- °F
--% Chance of Precip.
Yesterday
High -- | Low -- °F
Precip. -- in
Pressure 29.58 in
Visibility 15.0 miles
Clouds Overcast 900 ft
Windchill 18 °F
Dew Point 23 °F
Humidity 86%
Rainfall 0.00 in
Snow Depth Not available.
7:21 AM 5:35 PM
Waxing Crescent, 12% visible
SPECI CYHZ 111531Z 20008KT 180V240 15SM OVC009 M03/M05 A2955 RMK SC8 SLP016
Pressure 29.58 in
Visibility 15.0 miles
Clouds Overcast 900 ft
Windchill 18 °F
Dew Point 23 °F
Humidity 86%
Rainfall 0.00 in
Snow Depth Not available.
7:21 AM 5:35 PM
Waxing Crescent, 12% visible
SPECI CYHZ 111531Z 20008KT 180V240 15SM OVC009 M03/M05 A2955 RMK SC8 SLP016

10-Day Weather Forecast

Almanac

Astronomy

Feb. 11, 2016 Rise Set
Actual Time
Civil Twilight
Nautical Twilight
Astronomical Twilight
Moon
Length of Visible Light
Length of Day
Tomorrow will be .
, % of the Moon is Illuminated

Today's Extremes

Country Highs Country Lows

Community

WunderPhotos

Upload Photos

1,892,081 photos uploaded!

WunderBlog® & News

Nearby

Air Quality

  Air Quality AQ Index Pollutant
Not available.

Snow Depth

Station Depth Elevation

Earthquake Activity

City Distance Mag. Time & Date
Minimum magnitude displayed is 2.5.

Coastal Water Temperatures

Place Temperature

Stations

Nearby Weather Stations

Station Location Temp. Windchill Dew Point Humidity Wind Precip. Elev Updated Type
                   

Watches & Warnings

There are currently no watches in effect.